Time;durP1;ratioP1;P1;durP2;ratioP2;P2;SDS_P1;SDS_P2;PMS_P1;PMS_P2;Temp;Humidity;BMP_temperature;BMP_pressure;BME280_temperature;BME280_humidity;BME280_pressure;Samples;Min_cycle;Max_cycle;Signal;HPM_P1;HPM_P2
2022/08/12 00:43:28;;;;;;;3.77;2.90;;;20.00;1.00;;;;;;5089930;28;20602;-55
2022/08/12 00:48:40;;;;;;;3.13;2.50;;;19.90;1.00;;;;;;5090967;28;20489;-55
2022/08/12 00:51:07;;;;;;;3.10;2.80;;;19.90;1.00;;;;;;5086944;28;20448;-57
2022/08/12 00:53:33;;;;;;;3.13;2.83;;;19.80;1.00;;;;;;5086175;28;20471;-54
2022/08/12 00:56:00;;;;;;;4.60;2.57;;;19.70;1.00;;;;;;5083081;28;20448;-55
2022/08/12 00:58:28;;;;;;;3.40;2.80;;;19.70;1.00;;;;;;5086979;28;20445;-55
2022/08/12 01:01:05;;;;;;;5.00;2.67;;;19.70;1.00;;;;;;5089772;28;20447;-55
2022/08/12 01:11:52;;;;;;;2.67;2.47;;;19.60;1.00;;;;;;5090650;28;20975;-55
2022/08/12 01:14:22;;;;;;;2.93;2.63;;;19.50;1.00;;;;;;5087827;28;20529;-54
2022/08/12 01:16:50;;;;;;;4.93;2.83;;;19.40;1.00;;;;;;5090747;28;20440;-55
2022/08/12 01:19:19;;;;;;;3.77;2.60;;;19.40;1.00;;;;;;5087177;28;20914;-54
2022/08/12 01:22:15;;;;;;;5.30;3.67;;;19.40;1.00;;;;;;5090228;28;20519;-54
2022/08/12 01:24:40;;;;;;;2.97;2.77;;;19.40;1.00;;;;;;5088931;28;20973;-55
2022/08/12 01:27:09;;;;;;;3.83;2.63;;;19.40;1.00;;;;;;5088657;28;20452;-55
2022/08/12 01:29:42;;;;;;;4.77;2.93;;;19.30;1.00;;;;;;5087459;28;20186;-56
2022/08/12 01:32:11;;;;;;;4.47;2.83;;;19.20;1.00;;;;;;5089094;28;20453;-55
2022/08/12 01:34:40;;;;;;;4.63;2.60;;;19.20;1.00;;;;;;5087915;28;20445;-56
2022/08/12 01:37:07;;;;;;;2.80;2.60;;;19.20;1.00;;;;;;5090004;28;20460;-56
2022/08/12 01:39:41;;;;;;;3.70;2.63;;;19.20;1.00;;;;;;5087416;28;20480;-55
2022/08/12 01:42:08;;;;;;;4.20;2.63;;;19.20;1.00;;;;;;5089467;28;20448;-55
2022/08/12 01:44:36;;;;;;;4.97;2.93;;;19.20;1.00;;;;;;5088490;28;20448;-54
2022/08/12 01:47:21;;;;;;;3.73;3.27;;;19.10;1.00;;;;;;5089799;28;20429;-55
2022/08/12 01:50:30;;;;;;;3.40;3.03;;;19.10;1.00;;;;;;5087225;28;20804;-57
2022/08/12 01:53:07;;;;;;;8.50;2.80;;;19.20;1.00;;;;;;5088947;28;20555;-54
2022/08/12 01:55:35;;;;;;;6.83;2.60;;;19.10;1.00;;;;;;5088722;28;20448;-55
2022/08/12 01:58:10;;;;;;;4.20;2.87;;;19.10;1.00;;;;;;5088834;28;20456;-55
2022/08/12 02:00:47;;;;;;;2.87;2.47;;;19.10;1.00;;;;;;5089919;28;20436;-56
2022/08/12 02:13:06;;;;;;;4.60;2.57;;;18.80;1.00;;;;;;5086513;28;20841;-54
2022/08/12 02:15:51;;;;;;;3.37;2.90;;;18.80;1.00;;;;;;5093697;28;20506;-55
2022/08/12 02:18:30;;;;;;;3.77;2.80;;;18.90;1.00;;;;;;5089227;28;20535;-55
2022/08/12 02:21:20;;;;;;;4.47;2.60;;;18.90;1.00;;;;;;5093741;28;20933;-54
2022/08/12 02:23:46;;;;;;;3.90;2.93;;;18.90;1.00;;;;;;5092781;28;20449;-55
2022/08/12 02:26:15;;;;;;;9.33;3.23;;;18.90;1.00;;;;;;5092534;28;20480;-55
2022/08/12 02:28:41;;;;;;;3.80;3.50;;;19.00;1.00;;;;;;5092675;28;20448;-55
2022/08/12 02:31:07;;;;;;;4.50;2.90;;;18.90;1.00;;;;;;5075721;28;20444;-54
2022/08/12 02:33:36;;;;;;;4.60;2.80;;;18.90;1.00;;;;;;5092043;28;20559;-55
2022/08/12 02:36:21;;;;;;;3.30;3.00;;;18.90;1.00;;;;;;5092769;28;20937;-55
2022/08/12 02:38:49;;;;;;;3.67;2.73;;;18.90;1.00;;;;;;5049212;28;20454;-55
2022/08/12 02:41:17;;;;;;;3.00;2.70;;;18.80;1.00;;;;;;5051887;28;20482;-54
2022/08/12 02:43:57;;;;;;;4.27;2.83;;;18.80;1.00;;;;;;5053136;28;20448;-57
2022/08/12 02:46:31;;;;;;;2.97;2.67;;;18.70;1.00;;;;;;5052327;28;20441;-55
2022/08/12 02:49:02;;;;;;;3.10;2.60;;;18.70;1.00;;;;;;5053090;28;20434;-55
2022/08/12 02:51:37;;;;;;;5.53;3.40;;;18.60;1.00;;;;;;5050645;28;20508;-54
2022/08/12 02:54:04;;;;;;;5.37;3.20;;;18.60;1.00;;;;;;5048899;28;21034;-55
2022/08/12 02:56:31;;;;;;;6.27;2.67;;;18.60;1.00;;;;;;5050678;28;20430;-57
2022/08/12 02:58:59;;;;;;;3.97;3.10;;;18.60;1.00;;;;;;5051747;28;20791;-55
2022/08/12 03:01:32;;;;;;;3.77;2.63;;;18.70;1.00;;;;;;5051577;28;20843;-57
2022/08/12 03:04:01;;;;;;;3.23;2.93;;;18.60;1.00;;;;;;5051469;28;20453;-55
2022/08/12 03:06:42;;;;;;;7.27;3.00;;;18.50;1.00;;;;;;5052941;28;20449;-56
2022/08/12 03:09:12;;;;;;;4.03;3.10;;;18.50;1.00;;;;;;5052663;28;21083;-55
2022/08/12 03:11:44;;;;;;;3.90;2.57;;;18.50;1.00;;;;;;5051707;28;20447;-55
2022/08/12 03:14:13;;;;;;;4.43;2.80;;;18.40;1.00;;;;;;5049822;28;20477;-57
2022/08/12 03:16:40;;;;;;;3.77;2.60;;;18.40;1.00;;;;;;5051804;28;20776;-56
2022/08/12 03:19:06;;;;;;;4.33;2.93;;;18.20;1.00;;;;;;5051159;28;22023;-54
2022/08/12 03:21:36;;;;;;;3.90;3.13;;;18.20;1.00;;;;;;5051810;28;20449;-55
2022/08/12 03:24:04;;;;;;;3.60;2.87;;;18.20;1.00;;;;;;5048051;28;20553;-55
2022/08/12 03:26:34;;;;;;;3.50;3.07;;;18.00;1.00;;;;;;5050214;28;20443;-55
2022/08/12 03:29:05;;;;;;;3.60;3.30;;;17.90;1.00;;;;;;5051185;28;20450;-55
2022/08/12 03:31:32;;;;;;;3.93;3.20;;;18.00;1.00;;;;;;5049929;28;20462;-55
2022/08/12 03:34:09;;;;;;;4.13;3.20;;;18.00;1.00;;;;;;5051201;28;20473;-56
2022/08/12 03:36:39;;;;;;;5.33;3.30;;;18.00;1.00;;;;;;5052957;28;20448;-55
2022/08/12 03:39:21;;;;;;;3.70;2.93;;;17.90;1.00;;;;;;5089915;28;20501;-55
2022/08/12 03:42:00;;;;;;;4.40;3.60;;;17.90;1.00;;;;;;5088900;28;20427;-55
2022/08/12 04:01:51;;;;;;;4.50;3.63;;;17.70;1.00;;;;;;5089545;28;20998;-55
2022/08/12 04:04:17;;;;;;;4.10;2.80;;;17.70;1.00;;;;;;5091731;28;20631;-57
2022/08/12 04:06:44;;;;;;;3.40;3.10;;;17.80;1.00;;;;;;5090927;28;20440;-56
2022/08/12 04:09:11;;;;;;;6.73;3.30;;;17.90;1.00;;;;;;5091087;28;20443;-56
2022/08/12 04:14:26;;;;;;;3.67;3.37;;;17.90;1.00;;;;;;5091466;28;20476;-56
2022/08/12 04:16:52;;;;;;;3.33;3.03;;;17.90;1.00;;;;;;5090757;28;20468;-56
2022/08/12 04:19:18;;;;;;;5.43;2.93;;;17.90;1.00;;;;;;5090045;28;20441;-56
2022/08/12 04:21:45;;;;;;;3.30;3.00;;;17.90;1.00;;;;;;5089998;28;20449;-56
2022/08/12 04:24:11;;;;;;;3.73;2.70;;;17.90;1.00;;;;;;5091069;28;20871;-56
2022/08/12 04:26:40;;;;;;;2.83;2.60;;;18.00;1.00;;;;;;5090705;28;20494;-57
2022/08/12 04:29:06;;;;;;;3.60;3.03;;;18.00;1.00;;;;;;5091418;28;20432;-56
2022/08/12 04:31:33;;;;;;;3.97;3.60;;;18.10;1.00;;;;;;5090139;28;20441;-56
2022/08/12 04:34:00;;;;;;;3.80;2.73;;;18.10;1.00;;;;;;5090895;28;20463;-56
2022/08/12 04:36:26;;;;;;;5.73;3.50;;;18.20;1.00;;;;;;5089300;28;20942;-56
2022/08/12 04:38:53;;;;;;;3.57;3.07;;;18.20;1.00;;;;;;5089891;28;20444;-56
2022/08/12 04:41:19;;;;;;;6.70;3.33;;;18.30;1.00;;;;;;5090023;28;20463;-55
2022/08/12 04:43:46;;;;;;;3.47;2.70;;;18.30;1.00;;;;;;5088754;28;20449;-54
2022/08/12 04:46:11;;;;;;;6.77;4.00;;;18.30;1.00;;;;;;5090442;28;20448;-57
2022/08/12 04:48:37;;;;;;;6.03;3.73;;;18.40;1.00;;;;;;5090748;28;20437;-54
2022/08/12 04:51:06;;;;;;;4.97;3.40;;;18.40;1.00;;;;;;5089734;28;20189;-55
2022/08/12 04:53:32;;;;;;;6.50;3.63;;;18.40;1.00;;;;;;5087211;28;20234;-55
2022/08/12 04:55:59;;;;;;;4.50;3.60;;;18.40;1.00;;;;;;5089498;28;20448;-53
2022/08/12 04:58:25;;;;;;;7.27;3.87;;;18.40;1.00;;;;;;5091044;28;20441;-55
2022/08/12 05:00:50;;;;;;;7.70;3.40;;;18.60;1.00;;;;;;5071495;28;20441;-54
2022/08/12 05:03:16;;;;;;;5.53;3.97;;;18.70;1.00;;;;;;5090724;28;20445;-57
2022/08/12 05:05:42;;;;;;;5.03;3.47;;;18.60;1.00;;;;;;5088637;28;20486;-54
2022/08/12 05:08:16;;;;;;;11.00;4.50;;;18.60;1.00;;;;;;5088195;28;20652;-57
2022/08/12 05:10:45;;;;;;;4.20;3.73;;;18.70;1.00;;;;;;5089672;28;20456;-55
2022/08/12 05:13:14;;;;;;;5.33;3.70;;;18.80;1.00;;;;;;5089548;28;20791;-54
2022/08/12 05:15:42;;;;;;;7.90;3.83;;;18.80;1.00;;;;;;5089302;28;20449;-56
2022/08/12 05:18:07;;;;;;;8.73;4.13;;;18.90;1.00;;;;;;5090378;28;21001;-54
2022/08/12 05:20:33;;;;;;;8.33;4.43;;;18.80;1.00;;;;;;5089282;28;20547;-54
2022/08/12 05:23:10;;;;;;;5.00;3.77;;;18.80;1.00;;;;;;5089637;28;20928;-56
2022/08/12 05:25:36;;;;;;;4.33;3.53;;;18.80;1.00;;;;;;5088646;28;20190;-54
2022/08/12 05:28:06;;;;;;;7.00;3.73;;;19.10;1.00;;;;;;5088915;28;21018;-55
2022/08/12 05:30:50;;;;;;;4.73;3.20;;;19.10;1.00;;;;;;5088918;28;20439;-55
2022/08/12 05:33:16;;;;;;;4.20;3.80;;;19.10;1.00;;;;;;5090303;28;20475;-55
2022/08/12 05:35:44;;;;;;;4.10;3.53;;;19.10;1.00;;;;;;5089172;28;20506;-55
2022/08/12 05:40:59;;;;;;;12.90;3.97;;;19.20;1.00;;;;;;5090102;28;20431;-55
2022/08/12 05:43:25;;;;;;;3.83;3.40;;;;;;;;;;5090360;28;20444;-54
2022/08/12 05:45:51;;;;;;;4.00;3.60;;;19.30;1.00;;;;;;5089919;28;20448;-56
2022/08/12 05:48:17;;;;;;;5.33;3.80;;;19.40;1.00;;;;;;5090264;28;22160;-55
2022/08/12 05:50:44;;;;;;;6.73;3.60;;;19.50;1.00;;;;;;5090123;28;20531;-54
2022/08/12 05:53:10;;;;;;;5.17;4.10;;;19.70;1.00;;;;;;5089870;28;20884;-55
2022/08/12 05:55:36;;;;;;;5.07;3.90;;;19.70;1.00;;;;;;5090189;28;20471;-55
2022/08/12 05:58:03;;;;;;;4.43;3.60;;;19.80;1.00;;;;;;5089905;28;20428;-55
2022/08/12 06:00:30;;;;;;;3.83;3.43;;;19.90;1.00;;;;;;5089900;28;20463;-54
2022/08/12 06:03:00;;;;;;;7.03;4.47;;;20.00;1.00;;;;;;5089735;28;20448;-57
2022/08/12 06:05:34;;;;;;;4.83;3.77;;;20.20;1.00;;;;;;5089534;28;21859;-54
2022/08/12 06:08:07;;;;;;;6.17;4.33;;;20.30;1.00;;;;;;5090172;28;20528;-55
2022/08/12 06:10:34;;;;;;;4.17;3.77;;;20.50;1.00;;;;;;5090015;28;20441;-54
2022/08/12 06:13:01;;;;;;;8.60;3.87;;;20.60;1.00;;;;;;5090065;28;20464;-55
2022/08/12 06:15:27;;;;;;;4.13;3.37;;;20.70;1.00;;;;;;5089683;28;20429;-55
2022/08/12 06:17:54;;;;;;;5.90;4.20;;;20.80;1.00;;;;;;5089710;28;20464;-54
2022/08/12 06:20:19;;;;;;;7.70;3.60;;;20.90;1.00;;;;;;5089562;28;20429;-55
2022/08/12 06:22:49;;;;;;;4.70;4.00;;;21.00;1.00;;;;;;5089536;28;20498;-55
2022/08/12 06:25:17;;;;;;;5.60;3.30;;;21.00;1.00;;;;;;5089694;28;20674;-55
2022/08/12 06:27:49;;;;;;;8.10;3.80;;;21.00;1.00;;;;;;5089834;28;20929;-56
2022/08/12 06:30:15;;;;;;;5.27;3.70;;;21.10;1.00;;;;;;5089525;28;20444;-56
2022/08/12 06:32:42;;;;;;;5.47;3.10;;;21.10;1.00;;;;;;5088973;28;20891;-55
2022/08/12 06:35:13;;;;;;;6.57;3.70;;;21.00;1.00;;;;;;5089831;28;20791;-54
2022/08/12 06:37:45;;;;;;;5.10;3.60;;;21.10;1.00;;;;;;5089504;28;20460;-54
2022/08/12 06:40:12;;;;;;;6.77;3.40;;;21.20;1.00;;;;;;5089640;28;20929;-56
2022/08/12 06:42:47;;;;;;;5.93;3.53;;;21.40;1.00;;;;;;5088908;28;21216;-54
2022/08/12 06:45:20;;;;;;;4.50;3.50;;;21.60;1.00;;;;;;5089547;28;20429;-56
2022/08/12 06:47:46;;;;;;;8.33;4.37;;;21.80;1.00;;;;;;5089393;28;20436;-55
2022/08/12 06:50:15;;;;;;;4.63;3.60;;;22.00;1.00;;;;;;5089502;28;20432;-54
2022/08/12 06:52:44;;;;;;;4.57;3.30;;;22.20;1.00;;;;;;5089478;28;20456;-59
2022/08/12 06:55:14;;;;;;;6.60;2.57;;;22.40;1.00;;;;;;5089818;28;20789;-54
2022/08/12 06:57:54;;;;;;;5.70;3.80;;;22.40;1.00;;;;;;5088684;28;20796;-54
2022/08/12 07:00:25;;;;;;;4.53;3.67;;;22.30;1.00;;;;;;5093088;28;20466;-54
2022/08/12 07:02:52;;;;;;;4.57;3.73;;;22.40;1.00;;;;;;5092999;28;20797;-56
2022/08/12 07:05:23;;;;;;;7.00;3.30;;;22.20;1.00;;;;;;5092961;28;20428;-55
2022/08/12 07:08:10;;;;;;;6.10;2.70;;;22.10;1.00;;;;;;5092676;28;20451;-55
2022/08/12 07:10:57;;;;;;;10.10;3.33;;;22.00;1.00;;;;;;5092591;28;20424;-55
2022/08/12 07:13:25;;;;;;;3.63;3.20;;;21.80;1.00;;;;;;5088871;28;20464;-55
2022/08/12 07:15:54;;;;;;;5.80;3.50;;;21.60;1.00;;;;;;5088333;28;20540;-55
2022/08/12 07:18:20;;;;;;;6.17;4.00;;;21.60;1.00;;;;;;5092663;28;20429;-55
2022/08/12 07:20:47;;;;;;;5.27;3.40;;;21.60;1.00;;;;;;5092617;28;20504;-56
2022/08/12 07:23:14;;;;;;;6.23;3.90;;;21.50;1.00;;;;;;5091951;28;20444;-57
2022/08/12 07:25:41;;;;;;;4.70;3.57;;;21.60;1.00;;;;;;5092383;28;20437;-55
2022/08/12 07:28:11;;;;;;;5.27;3.63;;;21.50;1.00;;;;;;5092152;28;20451;-56
2022/08/12 07:30:39;;;;;;;4.17;3.27;;;21.40;1.00;;;;;;5092412;28;20433;-55
2022/08/12 07:33:07;;;;;;;3.70;3.00;;;21.60;1.00;;;;;;5092140;28;20456;-55
2022/08/12 07:35:34;;;;;;;3.40;3.10;;;21.80;1.00;;;;;;5092449;28;20763;-56
2022/08/12 07:38:01;;;;;;;5.00;3.40;;;22.00;1.00;;;;;;5091824;28;20893;-55
2022/08/12 07:40:31;;;;;;;7.20;3.73;;;22.20;1.00;;;;;;5092439;28;20433;-55
2022/08/12 07:42:57;;;;;;;5.80;3.10;;;22.40;1.00;;;;;;5092047;28;20429;-54
2022/08/12 07:45:23;;;;;;;4.80;3.37;;;22.50;1.00;;;;;;5091154;28;21165;-57
2022/08/12 07:47:49;;;;;;;5.80;4.00;;;22.80;1.00;;;;;;5088005;28;20187;-56
2022/08/12 07:50:16;;;;;;;4.23;3.60;;;23.10;1.00;;;;;;5091761;28;20437;-56
2022/08/12 07:52:45;;;;;;;5.40;3.27;;;23.40;1.00;;;;;;5091798;28;20563;-54
2022/08/12 07:55:12;;;;;;;3.47;3.10;;;23.80;1.00;;;;;;5091497;28;20452;-56
2022/08/12 07:57:58;;;;;;;4.30;3.00;;;24.20;1.00;;;;;;5091834;28;21001;-56
2022/08/12 08:00:25;;;;;;;3.30;3.00;;;24.70;1.00;;;;;;5091689;28;20531;-58
2022/08/12 08:02:53;;;;;;;3.40;2.50;;;24.90;1.00;;;;;;5091850;28;20440;-55
2022/08/12 08:05:20;;;;;;;3.90;2.97;;;25.20;1.00;;;;;;5091760;28;20441;-55
2022/08/12 08:07:46;;;;;;;5.23;3.13;;;25.70;1.00;;;;;;5091887;28;20433;-57
2022/08/12 08:10:13;;;;;;;4.50;3.53;;;26.00;1.00;;;;;;5091456;28;20937;-57
2022/08/12 08:12:55;;;;;;;4.50;3.00;;;26.00;1.00;;;;;;5091177;28;20945;-57
2022/08/12 08:15:33;;;;;;;6.27;2.77;;;25.90;1.00;;;;;;5090863;28;20447;-57
2022/08/12 08:18:09;;;;;;;2.43;2.23;;;25.50;1.00;;;;;;5073232;28;20531;-55
2022/08/12 08:20:39;;;;;;;3.30;3.00;;;25.50;1.00;;;;;;5091333;28;20435;-56
2022/08/12 08:23:10;;;;;;;3.80;2.30;;;25.30;1.00;;;;;;5091772;28;20848;-54
2022/08/12 08:25:37;;;;;;;6.60;2.60;;;25.00;1.00;;;;;;5074006;28;20433;-57
2022/08/12 08:28:12;;;;;;;4.17;3.37;;;25.00;1.00;;;;;;5091024;28;20460;-55
2022/08/12 08:30:41;;;;;;;4.83;2.10;;;25.40;1.00;;;;;;5091013;28;20424;-55
2022/08/12 08:33:08;;;;;;;5.50;2.60;;;25.90;1.00;;;;;;5091060;28;21012;-55
2022/08/12 08:35:35;;;;;;;4.37;2.60;;;26.20;1.00;;;;;;5072621;28;20747;-55
2022/08/12 08:38:13;;;;;;;4.90;2.57;;;26.40;1.00;;;;;;5090694;28;20868;-55
2022/08/12 08:43:26;;;;;;;5.57;2.60;;;27.30;1.00;;;;;;5091143;28;20451;-55
2022/08/12 08:45:53;;;;;;;3.50;2.67;;;27.40;1.00;;;;;;5090940;28;20524;-56
2022/08/12 08:48:20;;;;;;;7.30;2.70;;;27.30;1.00;;;;;;5091195;28;20475;-56
2022/08/12 08:50:47;;;;;;;5.93;2.43;;;27.40;1.00;;;;;;5090245;28;20799;-55
2022/08/12 08:53:13;;;;;;;3.80;2.40;;;27.40;1.00;;;;;;5090728;28;20487;-56
2022/08/12 08:55:39;;;;;;;4.47;2.70;;;27.40;1.00;;;;;;5090396;28;20433;-55
2022/08/12 08:58:05;;;;;;;4.60;2.67;;;27.50;1.00;;;;;;5088647;28;20639;-55
2022/08/12 09:00:31;;;;;;;3.27;2.47;;;27.40;1.00;;;;;;5090862;28;20525;-56
2022/08/12 09:02:57;;;;;;;2.63;2.30;;;27.40;1.00;;;;;;5072459;28;20495;-55
2022/08/12 09:05:22;;;;;;;2.83;2.60;;;27.40;1.00;;;;;;5090701;28;20187;-55
2022/08/12 09:07:49;;;;;;;5.13;2.90;;;27.50;1.00;;;;;;5090056;28;20187;-55
2022/08/12 09:10:18;;;;;;;5.57;2.03;;;27.70;1.00;;;;;;5090378;28;20214;-55
2022/08/12 09:15:30;;;;;;;2.60;2.33;;;28.40;1.00;;;;;;5087961;28;20929;-57
2022/08/12 09:17:57;;;;;;;5.10;2.50;;;28.30;1.00;;;;;;5090233;28;20441;-54
2022/08/12 09:20:28;;;;;;;4.93;1.70;;;28.40;1.00;;;;;;5090320;28;20932;-56
2022/08/12 09:22:55;;;;;;;2.23;1.83;;;28.40;1.00;;;;;;5089604;28;20448;-56
2022/08/12 09:25:24;;;;;;;4.77;2.10;;;28.40;1.00;;;;;;5090271;28;20445;-54
2022/08/12 09:27:50;;;;;;;2.57;2.00;;;28.10;1.00;;;;;;5090016;28;20439;-54
2022/08/12 09:30:16;;;;;;;1.97;1.87;;;27.70;1.00;;;;;;5089799;28;20539;-55
2022/08/12 09:32:49;;;;;;;3.33;1.90;;;27.20;1.00;;;;;;5089961;28;20175;-55
2022/08/12 09:35:26;;;;;;;12.33;2.33;;;27.30;1.00;;;;;;5089994;28;20976;-55
2022/08/12 09:37:55;;;;;;;2.23;2.03;;;27.40;1.00;;;;;;5088929;28;20825;-56
2022/08/12 09:40:22;;;;;;;2.20;1.80;;;27.70;1.00;;;;;;5088714;28;20459;-54
2022/08/12 09:45:33;;;;;;;2.17;1.90;;;28.00;1.00;;;;;;5086072;28;20526;-55
2022/08/12 09:48:05;;;;;;;2.13;1.93;;;28.50;1.00;;;;;;5089663;28;20466;-56
2022/08/12 09:50:32;;;;;;;2.10;1.90;;;28.40;1.00;;;;;;5090016;28;20532;-56
2022/08/12 09:53:15;;;;;;;4.83;2.23;;;28.20;1.00;;;;;;5089552;28;20453;-54
2022/08/12 09:55:51;;;;;;;3.00;2.00;;;28.20;1.00;;;;;;5089966;28;20484;-54
2022/08/12 09:58:18;;;;;;;6.03;2.53;;;27.90;1.00;;;;;;5089727;28;20475;-55
2022/08/12 10:00:45;;;;;;;5.00;2.00;;;27.70;1.00;;;;;;5090017;28;20517;-55
2022/08/12 10:03:14;;;;;;;2.43;1.80;;;27.70;1.00;;;;;;5089667;28;20440;-55
2022/08/12 10:05:46;;;;;;;4.20;2.20;;;27.60;1.00;;;;;;5089659;28;20795;-54
2022/08/12 10:08:14;;;;;;;2.40;2.10;;;27.30;1.00;;;;;;5087352;28;20450;-55
2022/08/12 10:13:43;;;;;;;5.17;2.47;;;27.10;1.00;;;;;;5089719;28;20837;-55
2022/08/12 10:16:18;;;;;;;4.10;2.03;;;27.10;1.00;;;;;;5089568;28;20474;-55
2022/08/12 10:19:15;;;;;;;2.93;2.20;;;27.10;1.00;;;;;;5089634;28;20429;-55
2022/08/12 10:21:41;;;;;;;3.17;2.30;;;27.20;1.00;;;;;;5086147;28;20721;-54
2022/08/12 10:24:13;;;;;;;2.50;2.20;;;27.30;1.00;;;;;;5089640;28;20533;-57
2022/08/12 10:29:38;;;;;;;2.57;2.37;;;26.80;1.00;;;;;;5089222;28;20482;-55
2022/08/12 10:32:15;;;;;;;3.27;2.00;;;26.80;1.00;;;;;;5089759;28;20444;-55
2022/08/12 10:34:41;;;;;;;2.23;2.13;;;26.80;1.00;;;;;;5093204;28;20551;-57
2022/08/12 10:37:07;;;;;;;3.93;3.50;;;27.10;1.00;;;;;;5093161;28;20880;-55
2022/08/12 10:39:36;;;;;;;2.57;1.80;;;27.60;1.00;;;;;;5092591;28;20179;-56
2022/08/12 10:44:49;;;;;;;2.53;2.30;;;28.40;1.00;;;;;;5092214;28;20422;-55
2022/08/12 10:47:21;;;;;;;2.30;2.10;;;28.40;1.00;;;;;;5091931;28;20435;-56
2022/08/12 10:49:47;;;;;;;4.23;1.90;;;28.10;1.00;;;;;;5092897;28;20464;-56
2022/08/12 10:52:13;;;;;;;4.13;2.60;;;27.90;1.00;;;;;;5093280;28;20516;-55
2022/08/12 10:54:40;;;;;;;2.90;1.90;;;28.00;1.00;;;;;;5092781;28;21216;-55
2022/08/12 10:57:06;;;;;;;9.63;2.60;;;28.10;1.00;;;;;;5093113;28;20437;-55
2022/08/12 10:59:32;;;;;;;2.70;2.17;;;28.50;1.00;;;;;;5092690;28;20526;-55
2022/08/12 11:01:59;;;;;;;2.60;2.40;;;28.80;1.00;;;;;;5093062;28;20199;-55
2022/08/12 11:04:27;;;;;;;2.37;2.13;;;29.40;1.00;;;;;;5093049;28;20884;-55
2022/08/12 11:06:54;;;;;;;4.87;2.20;;;29.70;1.00;;;;;;5092246;28;20515;-55
2022/08/12 11:09:30;;;;;;;2.63;2.30;;;29.70;1.00;;;;;;5092688;28;20445;-54
2022/08/12 11:12:05;;;;;;;4.10;2.50;;;30.10;1.00;;;;;;5092217;28;20525;-55
2022/08/12 11:14:32;;;;;;;4.73;2.20;;;30.40;1.00;;;;;;5092773;28;20468;-55
2022/08/12 11:17:06;;;;;;;2.87;2.20;;;30.10;1.00;;;;;;5092558;28;20441;-56
2022/08/12 11:19:35;;;;;;;2.97;2.20;;;29.70;1.00;;;;;;5092729;28;20524;-55
2022/08/12 11:22:03;;;;;;;2.63;1.80;;;29.70;1.00;;;;;;5092632;28;20475;-55
2022/08/12 11:24:29;;;;;;;2.80;2.10;;;29.90;1.00;;;;;;5092419;28;20803;-55
2022/08/12 11:26:55;;;;;;;3.27;1.90;;;30.00;1.00;;;;;;5091959;28;20408;-55
2022/08/12 11:29:23;;;;;;;3.60;2.03;;;29.60;1.00;;;;;;5092316;28;20441;-55
2022/08/12 11:31:49;;;;;;;2.10;1.90;;;29.80;1.00;;;;;;5092021;28;20536;-54
2022/08/12 11:34:15;;;;;;;3.33;2.10;;;30.10;1.00;;;;;;5092294;28;20470;-54
2022/08/12 11:37:03;;;;;;;8.97;2.27;;;30.30;1.00;;;;;;5090272;28;21695;-55
2022/08/12 11:39:31;;;;;;;2.93;1.90;;;30.20;1.00;;;;;;5093087;28;20444;-54
2022/08/12 11:41:57;;;;;;;2.60;1.97;;;29.90;1.00;;;;;;5091926;28;20811;-57
2022/08/12 11:44:25;;;;;;;2.10;1.90;;;29.20;1.00;;;;;;5091343;28;20419;-56
2022/08/12 11:46:53;;;;;;;2.40;2.20;;;28.50;1.00;;;;;;5091957;28;20191;-56
2022/08/12 11:49:20;;;;;;;3.83;2.23;;;28.20;1.00;;;;;;5092023;28;20443;-55
2022/08/12 11:51:46;;;;;;;2.50;2.10;;;28.50;1.00;;;;;;5091808;28;20445;-57
2022/08/12 11:54:12;;;;;;;3.13;2.00;;;28.80;1.00;;;;;;5091663;28;20464;-55
2022/08/12 11:56:37;;;;;;;2.13;1.93;;;29.20;1.00;;;;;;5092139;28;20179;-56
2022/08/12 11:59:03;;;;;;;3.93;2.33;;;29.50;1.00;;;;;;5090351;28;20193;-55
2022/08/12 12:01:28;;;;;;;2.80;2.30;;;29.60;1.00;;;;;;5092135;28;20187;-55
2022/08/12 12:03:54;;;;;;;2.27;2.03;;;28.90;1.00;;;;;;5091853;28;20259;-55
2022/08/12 12:06:20;;;;;;;3.10;2.30;;;28.50;1.00;;;;;;5091610;28;20704;-55
2022/08/12 12:08:47;;;;;;;3.43;2.13;;;28.60;1.00;;;;;;5091537;28;20182;-55
2022/08/12 12:11:13;;;;;;;5.80;2.30;;;29.20;1.00;;;;;;5091250;28;20529;-56
2022/08/12 12:13:38;;;;;;;2.90;2.03;;;29.50;1.00;;;;;;5091959;28;20481;-54
2022/08/12 12:16:08;;;;;;;4.43;1.70;;;29.20;1.00;;;;;;5091400;28;20698;-54
2022/08/12 12:18:34;;;;;;;1.90;1.80;;;28.90;1.00;;;;;;5091737;28;20180;-57
2022/08/12 12:21:05;;;;;;;2.23;2.03;;;28.90;1.00;;;;;;5091504;28;20444;-55
2022/08/12 12:23:33;;;;;;;2.23;2.03;;;29.20;1.00;;;;;;5091412;28;20650;-55
2022/08/12 12:25:59;;;;;;;2.53;2.17;;;29.30;1.00;;;;;;5091359;28;20433;-55
2022/08/12 12:28:25;;;;;;;4.20;2.27;;;29.40;1.00;;;;;;5091205;28;20607;-54
2022/08/12 12:30:50;;;;;;;2.37;2.17;;;29.50;1.00;;;;;;5091413;28;20552;-55
2022/08/12 12:33:16;;;;;;;3.07;2.70;;;29.60;1.00;;;;;;5090388;28;20216;-55
2022/08/12 12:35:42;;;;;;;3.40;2.33;;;28.90;1.00;;;;;;5087081;28;20577;-56
2022/08/12 12:38:10;;;;;;;2.40;2.17;;;28.70;1.00;;;;;;5090953;28;20260;-54
2022/08/12 12:40:38;;;;;;;2.23;2.07;;;28.70;1.00;;;;;;5073042;28;20663;-55
2022/08/12 12:43:04;;;;;;;2.30;2.10;;;28.90;1.00;;;;;;5091219;28;20436;-55
2022/08/12 12:45:31;;;;;;;2.40;2.20;;;29.20;1.00;;;;;;5091001;28;20408;-53
2022/08/12 12:48:04;;;;;;;2.80;2.23;;;29.30;1.00;;;;;;5091082;28;20844;-55
2022/08/12 12:50:38;;;;;;;3.10;2.00;;;29.40;1.00;;;;;;5090536;28;20448;-56
2022/08/12 12:53:05;;;;;;;4.27;2.50;;;29.20;1.00;;;;;;5090785;28;20978;-55
2022/08/12 12:55:34;;;;;;;3.90;2.47;;;29.00;1.00;;;;;;5090195;28;20479;-55
2022/08/12 12:58:15;;;;;;;1.93;1.83;;;28.80;1.00;;;;;;5072173;28;20448;-56
2022/08/12 13:00:43;;;;;;;2.43;1.93;;;28.60;1.00;;;;;;5089604;28;20428;-56
2022/08/12 13:03:11;;;;;;;2.00;1.90;;;28.70;1.00;;;;;;5090864;28;20481;-55
2022/08/12 13:05:37;;;;;;;2.10;2.00;;;29.00;1.00;;;;;;5090663;28;20441;-55
2022/08/12 13:08:22;;;;;;;1.90;1.80;;;29.10;1.00;;;;;;5090788;28;20442;-55
2022/08/12 13:10:49;;;;;;;3.83;2.60;;;29.20;1.00;;;;;;5090524;28;20423;-55
2022/08/12 13:13:16;;;;;;;2.00;1.90;;;29.30;1.00;;;;;;5090412;28;20461;-53
2022/08/12 13:15:41;;;;;;;2.93;2.27;;;29.30;1.00;;;;;;5090159;28;20475;-55
2022/08/12 13:18:07;;;;;;;2.27;2.07;;;29.60;1.00;;;;;;5090884;28;20474;-56
2022/08/12 13:20:33;;;;;;;5.93;2.07;;;29.70;1.00;;;;;;5090277;28;20190;-54
2022/08/12 13:22:58;;;;;;;3.40;2.10;;;29.30;1.00;;;;;;5090498;28;20632;-55
2022/08/12 13:25:24;;;;;;;2.63;2.00;;;29.10;1.00;;;;;;5090434;28;20259;-55
2022/08/12 13:27:50;;;;;;;2.13;1.80;;;29.10;1.00;;;;;;5089553;28;20195;-55
2022/08/12 13:30:22;;;;;;;2.47;2.23;;;29.10;1.00;;;;;;5090302;28;20823;-55
2022/08/12 13:32:54;;;;;;;2.37;2.17;;;29.30;1.00;;;;;;5089278;28;20560;-55
2022/08/12 13:35:20;;;;;;;2.77;1.73;;;29.30;1.00;;;;;;5090147;28;20972;-55
2022/08/12 13:37:54;;;;;;;2.40;2.20;;;29.30;1.00;;;;;;5071771;28;20502;-55
2022/08/12 13:40:21;;;;;;;5.00;2.10;;;29.40;1.00;;;;;;5089346;28;20240;-55
2022/08/12 13:42:47;;;;;;;11.60;10.10;;;29.60;1.00;;;;;;5090060;28;20416;-55
2022/08/12 13:45:14;;;;;;;3.90;2.37;;;29.70;1.00;;;;;;5090122;28;20930;-55
2022/08/12 13:47:56;;;;;;;3.97;3.50;;;29.70;1.00;;;;;;5087777;28;20491;-57
2022/08/12 13:50:35;;;;;;;2.93;1.77;;;29.70;1.00;;;;;;5090103;28;21027;-56
2022/08/12 13:53:08;;;;;;;3.23;2.30;;;29.80;1.00;;;;;;5089984;28;20549;-56
2022/08/12 13:55:38;;;;;;;4.13;2.23;;;29.90;1.00;;;;;;5090171;28;20520;-54
2022/08/12 13:58:05;;;;;;;2.53;1.87;;;31.40;1.00;;;;;;5088274;28;20436;-55
2022/08/12 14:00:32;;;;;;;2.73;2.30;;;29.70;1.00;;;;;;5089790;28;20452;-55
2022/08/12 14:02:59;;;;;;;5.40;2.27;;;29.20;1.00;;;;;;5089946;28;20493;-56
2022/08/12 14:05:25;;;;;;;2.20;2.00;;;28.80;1.00;;;;;;5089032;28;20499;-55
2022/08/12 14:07:58;;;;;;;2.17;1.90;;;28.70;1.00;;;;;;5091214;28;20468;-55
2022/08/12 14:10:35;;;;;;;2.50;2.00;;;28.60;1.00;;;;;;5093005;28;20930;-56
2022/08/12 14:13:16;;;;;;;2.57;1.97;;;28.70;1.00;;;;;;5090818;28;20456;-56
2022/08/12 14:15:48;;;;;;;2.10;1.90;;;28.80;1.00;;;;;;5093011;28;21097;-55
2022/08/12 14:18:17;;;;;;;4.23;2.30;;;28.80;1.00;;;;;;5091427;28;20433;-57
2022/08/12 14:20:45;;;;;;;5.23;2.30;;;28.80;1.00;;;;;;5093312;28;20989;-55
2022/08/12 14:23:12;;;;;;;5.53;2.23;;;28.80;1.00;;;;;;5092755;28;20445;-55
2022/08/12 14:25:38;;;;;;;4.00;2.00;;;28.80;1.00;;;;;;5092457;28;20524;-57
2022/08/12 14:28:10;;;;;;;1.80;1.70;;;28.80;1.00;;;;;;5092678;28;21049;-58
2022/08/12 14:30:47;;;;;;;2.30;2.07;;;29.30;1.00;;;;;;5090443;28;20419;-55
2022/08/12 14:33:14;;;;;;;1.80;1.70;;;30.30;1.00;;;;;;5091070;28;20517;-55
2022/08/12 14:35:40;;;;;;;2.47;1.73;;;31.60;1.00;;;;;;5092271;28;20449;-55
2022/08/12 14:38:19;;;;;;;2.47;1.80;;;32.00;1.00;;;;;;5093091;28;20453;-55
2022/08/12 14:40:45;;;;;;;3.77;1.93;;;31.20;1.00;;;;;;5091124;28;20946;-55
2022/08/12 14:43:14;;;;;;;3.40;2.13;;;31.50;1.00;;;;;;5089993;28;20502;-55
2022/08/12 14:45:41;;;;;;;2.37;2.10;;;31.90;1.00;;;;;;5091965;28;20452;-55
2022/08/12 14:48:07;;;;;;;2.33;1.53;;;32.80;1.00;;;;;;5092893;28;20465;-56
2022/08/12 14:50:33;;;;;;;1.60;1.50;;;33.70;1.00;;;;;;5092094;28;20447;-55
2022/08/12 14:52:58;;;;;;;1.87;1.47;;;34.80;1.00;;;;;;5092830;28;20454;-55